Time;durP1;ratioP1;P1;durP2;ratioP2;P2;SDS_P1;SDS_P2;PMS_P1;PMS_P2;Temp;Humidity;BMP_temperature;BMP_pressure;BME280_temperature;BME280_humidity;BME280_pressure;Samples;Min_cycle;Max_cycle;Signal;HPM_P1;HPM_P2
2022/02/01 00:00:05;;;;;;;99.50;36.58;;;;;;;0.21;62.03;94292.50;5046482;28;19913;-79
2022/02/01 00:02:40;;;;;;;100.50;36.80;;;;;;;0.24;62.28;94294.84;5044272;28;20043;-80
2022/02/01 00:05:10;;;;;;;85.18;37.13;;;;;;;0.18;61.44;94303.34;5046217;28;20029;-80
2022/02/01 00:08:32;;;;;;;88.97;38.83;;;;;;;0.24;61.29;94298.31;5028658;28;20033;-79
2022/02/01 00:10:37;;;;;;;92.88;38.63;;;;;;;0.20;62.53;94296.09;5044708;28;20049;-79
2022/02/01 00:37:09;;;;;;;123.03;45.67;;;;;;;0.22;62.16;94279.16;5044718;28;20036;-76
2022/02/01 00:39:44;;;;;;;132.02;49.45;;;;;;;0.29;61.79;94278.59;5045273;28;20100;-78
2022/02/01 00:42:11;;;;;;;121.47;45.20;;;;;;;0.33;61.47;94270.25;5045216;28;20430;-80
2022/02/01 00:44:37;;;;;;;121.65;45.83;;;;;;;0.38;61.06;94266.34;5027778;28;20025;-78
2022/02/01 00:47:03;;;;;;;117.20;45.05;;;;;;;0.40;62.03;94259.13;5045353;28;20427;-77
2022/02/01 00:49:29;;;;;;;119.72;45.83;;;;;;;0.31;62.01;94251.09;5027092;28;20036;-79
2022/02/01 00:51:55;;;;;;;130.45;47.72;;;;;;;0.21;63.08;94248.47;5046259;28;20035;-78
2022/02/01 00:54:20;;;;;;;126.40;49.83;;;;;;;0.02;63.25;94240.63;5045062;28;20025;-79
2022/02/01 00:56:46;;;;;;;126.50;47.15;;;;;;;-0.11;63.75;94246.19;5012303;28;20032;-79
2022/02/01 00:59:12;;;;;;;106.57;44.20;;;;;;;-0.09;64.23;94252.13;5044498;28;20025;-79
2022/02/01 01:01:37;;;;;;;134.70;50.88;;;;;;;-0.09;63.61;94250.34;5028402;28;20052;-78
2022/02/01 01:04:03;;;;;;;129.13;49.47;;;;;;;-0.17;64.00;94239.66;5046071;28;20421;-78
2022/02/01 01:06:28;;;;;;;124.10;47.15;;;;;;;-0.06;63.50;94236.03;5044767;28;20025;-78
2022/02/01 01:08:54;;;;;;;120.15;47.35;;;;;;;0.00;63.24;94235.50;5045547;28;20408;-78
2022/02/01 01:11:19;;;;;;;130.95;47.88;;;;;;;0.01;63.49;94234.50;5044067;28;20045;-77
2022/02/01 01:43:36;;;;;;;83.38;36.83;;;;;;;0.21;64.21;94192.28;5044997;28;20067;-78
2022/02/01 01:53:57;;;;;;;84.13;34.30;;;;;;;0.09;62.52;94205.63;5049635;28;20040;-78
2022/02/01 01:56:23;;;;;;;61.15;28.35;;;;;;;-0.09;63.17;94194.97;5032573;28;20037;-78
2022/02/01 01:58:48;;;;;;;61.47;25.98;;;;;;;-0.08;63.15;94199.28;5030998;28;20029;-78
2022/02/01 02:01:14;;;;;;;52.22;26.20;;;;;;;-0.08;62.92;94190.56;5050201;28;20037;-78
2022/02/01 02:03:47;;;;;;;63.28;26.52;;;;;;;-0.20;63.28;94193.34;5014486;28;20029;-78
2022/02/01 02:06:13;;;;;;;57.83;25.23;;;;;;;-0.29;63.40;94199.47;5048732;28;20029;-78
2022/02/01 02:08:40;;;;;;;58.90;26.40;;;;;;;-0.40;64.13;94198.63;5014922;28;20043;-78
2022/02/01 02:11:10;;;;;;;51.45;25.33;;;;;;;-0.50;64.86;94205.72;5031895;28;20032;-78
2022/02/01 02:16:37;;;;;;;61.92;25.95;;;;;;;-0.65;65.88;94198.25;5034313;28;20036;-78
2022/02/01 02:19:03;;;;;;;58.55;25.63;;;;;;;-0.70;65.94;94210.97;5048760;28;20073;-79
2022/02/01 02:21:29;;;;;;;58.85;25.42;;;;;;;-0.67;66.04;94194.91;5047655;28;20051;-78
2022/02/01 02:23:54;;;;;;;59.00;25.20;;;;;;;-0.75;66.22;94200.03;5049275;28;20530;-77
2022/02/01 02:26:20;;;;;;;55.42;24.35;;;;;;;-0.82;66.78;94185.75;5049405;28;20024;-77
2022/02/01 02:28:46;;;;;;;50.40;23.17;;;;;;;-0.87;67.01;94175.63;5047352;28;20028;-79
2022/02/01 02:31:12;;;;;;;49.47;23.77;;;;;;;-0.82;66.43;94175.22;5049813;28;20025;-77
2022/02/01 02:33:37;;;;;;;50.08;21.95;;;;;;;-0.68;66.19;94177.44;5046948;28;20048;-78
2022/02/01 02:36:08;;;;;;;50.40;21.80;;;;;;;-0.72;66.18;94176.06;5049688;28;20572;-78
2022/02/01 02:38:44;;;;;;;44.67;21.52;;;;;;;-0.68;66.21;94171.34;5047296;28;20044;-78
2022/02/01 02:41:31;;;;;;;53.08;20.95;;;;;;;-0.69;66.38;94183.66;5047978;28;20154;-78
2022/02/01 02:46:45;;;;;;;53.42;22.23;;;;;;;-0.56;66.37;94174.66;5033600;28;20526;-78
2022/02/01 02:49:13;;;;;;;48.88;22.75;;;;;;;-0.54;66.46;94177.97;5048612;28;20021;-78
2022/02/01 02:51:38;;;;;;;48.53;21.88;;;;;;;-0.42;65.51;94187.41;5047595;28;20048;-78
2022/02/01 02:54:16;;;;;;;45.53;23.10;;;;;;;-0.39;65.22;94187.13;5048486;28;20479;-77
2022/02/01 02:56:46;;;;;;;41.67;20.73;;;;;;;-0.31;65.18;94183.81;5047717;28;20068;-77
2022/02/01 02:59:13;;;;;;;45.63;21.38;;;;;;;-0.43;65.57;94177.00;5047017;28;20061;-78
2022/02/01 03:01:39;;;;;;;49.72;23.45;;;;;;;-0.67;66.28;94173.84;5047692;28;20083;-78
2022/02/01 03:04:05;;;;;;;38.10;19.80;;;;;;;-0.48;65.10;94187.97;5047683;28;20043;-78
2022/02/01 03:06:30;;;;;;;38.97;18.10;;;;;;;-0.31;64.59;94178.53;5048789;28;20025;-78
2022/02/01 03:08:56;;;;;;;42.13;19.38;;;;;;;-0.35;64.97;94184.19;5044881;28;20032;-77
2022/02/01 03:11:21;;;;;;;43.58;20.40;;;;;;;-0.28;64.76;94177.41;5048691;28;20025;-79
2022/02/01 03:13:57;;;;;;;38.47;19.52;;;;;;;-0.21;65.05;94175.84;5048466;28;20028;-77
2022/02/01 03:21:33;;;;;;;44.25;22.80;;;;;;;-0.10;65.67;94166.13;5047077;28;20410;-79
2022/02/01 03:23:58;;;;;;;46.20;22.33;;;;;;;-0.09;65.49;94160.72;5030680;28;20503;-79
2022/02/01 03:26:23;;;;;;;50.35;22.63;;;;;;;-0.21;66.30;94152.13;5046832;28;20451;-79
2022/02/01 03:28:49;;;;;;;46.15;22.58;;;;;;;-0.09;65.03;94150.16;5047125;28;20495;-80
2022/02/01 03:31:14;;;;;;;37.50;19.27;;;;;;;-0.16;63.70;94142.00;5047050;28;20537;-80
2022/02/01 03:33:40;;;;;;;34.22;18.27;;;;;;;0.00;63.26;94137.94;5047673;28;20487;-79
2022/02/01 03:36:05;;;;;;;38.53;17.85;;;;;;;-0.07;63.12;94136.84;5047607;28;20021;-80
2022/02/01 03:38:31;;;;;;;40.28;17.50;;;;;;;-0.09;63.29;94133.53;5046133;28;20021;-80
2022/02/01 03:40:56;;;;;;;39.70;19.17;;;;;;;-0.10;64.36;94139.78;5047055;28;20021;-80
2022/02/01 03:43:21;;;;;;;35.25;17.17;;;;;;;-0.04;63.42;94139.19;5047411;28;20047;-79
2022/02/01 03:45:47;;;;;;;37.63;17.55;;;;;;;-0.05;63.31;94127.00;5046633;28;20021;-79
2022/02/01 03:48:12;;;;;;;45.13;21.92;;;;;;;-0.02;63.75;94135.44;5046341;28;20531;-80
2022/02/01 03:50:38;;;;;;;46.55;21.33;;;;;;;0.06;63.25;94124.19;5047991;28;20021;-80
2022/02/01 03:53:03;;;;;;;50.92;25.08;;;;;;;0.09;63.14;94125.69;5048077;28;20031;-80
2022/02/01 03:55:29;;;;;;;55.95;26.35;;;;;;;0.18;63.03;94124.00;5045994;28;20568;-80
2022/02/01 03:57:54;;;;;;;53.78;26.55;;;;;;;0.23;62.82;94116.47;5048378;28;20033;-80
2022/02/01 04:00:20;;;;;;;56.10;26.63;;;;;;;0.21;63.27;94113.97;5045427;28;20045;-78
2022/02/01 04:02:45;;;;;;;50.83;25.73;;;;;;;0.20;63.09;94112.31;5029916;28;20029;-79
2022/02/01 04:05:10;;;;;;;56.90;27.48;;;;;;;0.19;63.25;94112.47;5047359;28;20385;-79
2022/02/01 04:07:36;;;;;;;51.33;25.85;;;;;;;0.22;63.83;94104.28;5028908;28;20399;-79
2022/02/01 04:10:02;;;;;;;59.22;26.65;;;;;;;0.23;62.96;94106.75;5047367;28;20875;-79
2022/02/01 04:12:28;;;;;;;54.22;25.27;;;;;;;0.28;62.99;94114.22;5046017;28;20060;-79
2022/02/01 04:14:56;;;;;;;56.80;27.35;;;;;;;0.22;63.26;94120.94;5047575;28;20397;-79
2022/02/01 04:17:22;;;;;;;58.30;26.70;;;;;;;0.19;63.38;94113.31;5046772;28;20025;-79
2022/02/01 04:19:48;;;;;;;56.22;26.75;;;;;;;0.20;63.47;94114.97;5048017;28;20078;-79
2022/02/01 04:22:15;;;;;;;51.33;26.75;;;;;;;0.10;63.31;94114.16;5045157;28;20025;-79
2022/02/01 04:24:42;;;;;;;50.78;25.00;;;;;;;0.07;63.54;94120.56;5045942;28;20554;-79
2022/02/01 04:27:08;;;;;;;60.47;27.10;;;;;;;0.18;63.83;94119.53;5047201;28;20048;-80
2022/02/01 04:29:33;;;;;;;57.03;29.70;;;;;;;0.05;65.33;94119.88;5029205;28;20440;-80
2022/02/01 04:31:59;;;;;;;59.88;29.15;;;;;;;0.17;64.52;94117.06;5029424;28;20043;-80
2022/02/01 04:34:24;;;;;;;61.30;28.73;;;;;;;0.29;64.31;94115.88;5045151;28;20498;-78
2022/02/01 04:36:50;;;;;;;66.72;29.17;;;;;;;0.21;64.41;94108.69;5046368;28;20463;-79
2022/02/01 04:39:15;;;;;;;57.63;27.40;;;;;;;0.08;64.74;94109.03;5044715;28;20025;-79
2022/02/01 04:41:41;;;;;;;53.85;26.75;;;;;;;0.03;65.00;94115.72;5050322;28;20502;-81
2022/02/01 04:44:07;;;;;;;59.65;26.73;;;;;;;0.03;65.03;94100.75;5045126;28;20048;-80
2022/02/01 04:46:32;;;;;;;52.47;25.58;;;;;;;0.09;63.98;94108.06;5046835;28;20021;-79
2022/02/01 04:49:05;;;;;;;54.88;26.30;;;;;;;0.14;63.56;94106.81;5045569;28;20454;-79
2022/02/01 04:51:30;;;;;;;60.38;26.83;;;;;;;0.09;63.58;94099.31;5029580;28;20410;-79
2022/02/01 04:53:57;;;;;;;57.13;26.52;;;;;;;0.15;64.19;94105.81;5047385;28;20036;-79
2022/02/01 04:56:25;;;;;;;50.03;23.92;;;;;;;0.28;63.15;94103.69;5046079;28;20378;-78
2022/02/01 04:58:50;;;;;;;53.60;25.92;;;;;;;0.24;63.78;94108.41;5047141;28;20513;-78
2022/02/01 05:01:16;;;;;;;46.70;24.13;;;;;;;0.17;63.35;94107.34;5027830;28;20069;-78
2022/02/01 05:03:41;;;;;;;52.03;24.75;;;;;;;0.16;62.85;94110.94;5047356;28;20454;-79
2022/02/01 05:06:08;;;;;;;58.47;28.63;;;;;;;0.15;63.26;94103.19;5045096;28;20025;-78
2022/02/01 05:08:33;;;;;;;62.53;29.27;;;;;;;0.19;63.32;94120.38;5028502;28;20482;-78
2022/02/01 05:10:59;;;;;;;56.95;26.67;;;;;;;0.19;63.34;94131.78;5045536;28;20061;-78
2022/02/01 05:16:10;;;;;;;70.40;31.63;;;;;;;0.26;62.67;94124.09;5046918;28;20039;-78
2022/02/01 05:18:48;;;;;;;68.22;29.92;;;;;;;0.21;63.58;94140.34;5044407;28;20027;-78
2022/02/01 05:21:25;;;;;;;73.88;32.80;;;;;;;0.22;62.73;94141.19;5045014;28;20029;-77
2022/02/01 05:23:52;;;;;;;77.97;36.70;;;;;;;0.22;63.02;94141.19;5046642;28;20522;-78
2022/02/01 05:26:18;;;;;;;75.65;34.10;;;;;;;0.28;63.20;94140.59;5027447;28;20470;-77
2022/02/01 05:28:44;;;;;;;79.15;33.70;;;;;;;0.30;63.62;94154.50;5045497;28;20188;-79
2022/02/01 05:31:09;;;;;;;71.22;33.38;;;;;;;0.29;63.59;94152.00;5044240;28;20054;-78
2022/02/01 05:33:35;;;;;;;62.10;31.15;;;;;;;0.04;64.62;94165.69;5045041;28;20036;-80
2022/02/01 05:36:01;;;;;;;62.40;30.38;;;;;;;0.18;64.15;94163.56;5028157;28;20087;-79
2022/02/01 05:38:26;;;;;;;63.47;30.38;;;;;;;0.10;64.19;94175.66;5025814;28;20037;-79
2022/02/01 05:40:52;;;;;;;58.65;29.35;;;;;;;0.27;63.98;94167.13;5008548;28;20901;-78
2022/02/01 05:43:22;;;;;;;59.33;31.00;;;;;;;0.27;64.18;94180.31;5024025;28;20056;-78
2022/02/01 05:45:48;;;;;;;76.80;32.17;;;;;;;0.23;64.28;94179.75;5040173;28;20094;-79
2022/02/01 05:48:13;;;;;;;63.00;28.58;;;;;;;0.13;64.24;94178.97;5043304;28;20029;-80
2022/02/01 05:50:39;;;;;;;53.85;27.30;;;;;;;0.07;64.88;94175.09;5028241;28;20032;-82
2022/02/01 05:53:05;;;;;;;54.35;28.38;;;;;;;0.12;64.42;94167.59;5039894;28;20033;-80
2022/02/01 05:55:32;;;;;;;61.28;27.73;;;;;;;0.18;64.02;94172.28;5037630;28;20116;-79
2022/02/01 05:57:57;;;;;;;54.80;28.17;;;;;;;0.17;63.77;94164.53;5045290;28;20028;-79
2022/02/01 06:00:23;;;;;;;53.83;28.05;;;;;;;-0.19;65.19;94167.81;5045211;28;20412;-79
2022/02/01 06:02:50;;;;;;;50.90;27.02;;;;;;;-0.03;64.76;94175.13;5045732;28;20041;-81
2022/02/01 06:05:15;;;;;;;64.53;29.90;;;;;;;0.05;64.35;94177.88;5043740;28;20147;-78
2022/02/01 06:07:41;;;;;;;58.95;27.00;;;;;;;0.16;64.64;94184.78;5028112;28;20021;-75
2022/02/01 06:10:06;;;;;;;53.35;26.45;;;;;;;0.28;64.03;94189.88;5039169;28;20029;-78
2022/02/01 06:12:45;;;;;;;53.78;26.75;;;;;;;0.19;63.39;94200.34;5044266;28;20048;-79
2022/02/01 06:15:11;;;;;;;47.00;24.92;;;;;;;0.24;63.53;94219.19;5038998;28;20045;-78
2022/02/01 06:17:37;;;;;;;52.75;24.92;;;;;;;0.26;63.40;94224.31;5026616;28;20132;-78
2022/02/01 06:20:03;;;;;;;47.42;23.75;;;;;;;0.32;63.37;94242.19;5043971;28;20025;-79
2022/02/01 06:22:29;;;;;;;48.88;24.50;;;;;;;0.28;63.16;94240.84;5039402;28;20082;-77
2022/02/01 06:24:55;;;;;;;52.22;26.08;;;;;;;0.11;62.62;94259.03;5040688;28;20022;-78
2022/02/01 06:27:21;;;;;;;47.05;22.75;;;;;;;0.11;61.76;94266.13;5039061;28;20030;-79
2022/02/01 06:29:46;;;;;;;43.55;22.88;;;;;;;-0.01;62.20;94260.19;5041712;28;20480;-79
2022/02/01 06:32:12;;;;;;;46.08;20.75;;;;;;;0.00;62.19;94264.50;5045849;28;20029;-77
2022/02/01 06:34:37;;;;;;;52.42;21.02;;;;;;;0.04;62.85;94262.38;5046341;28;20036;-78
2022/02/01 06:37:03;;;;;;;45.03;22.50;;;;;;;0.27;61.69;94275.25;5048612;28;20021;-78
2022/02/01 06:39:28;;;;;;;49.15;25.50;;;;;;;0.24;62.26;94271.13;5048686;28;20025;-77
2022/02/01 06:41:54;;;;;;;49.38;23.23;;;;;;;0.25;62.63;94272.75;5048440;28;20033;-78
2022/02/01 06:44:20;;;;;;;42.25;22.13;;;;;;;0.33;61.72;94280.81;5045106;28;20057;-78
2022/02/01 06:46:45;;;;;;;43.28;22.75;;;;;;;0.38;62.24;94288.28;5049333;28;20033;-78
2022/02/01 06:49:11;;;;;;;48.63;24.35;;;;;;;0.44;62.73;94284.22;5048186;28;20025;-77
2022/02/01 06:51:39;;;;;;;49.20;24.58;;;;;;;0.48;63.16;94288.28;5030496;28;20032;-78
2022/02/01 06:54:05;;;;;;;46.67;25.33;;;;;;;0.54;62.19;94282.41;5047137;28;20049;-78
2022/02/01 06:56:33;;;;;;;48.88;24.95;;;;;;;0.55;63.09;94289.34;5046543;28;20483;-76
2022/02/01 06:59:01;;;;;;;51.58;24.83;;;;;;;0.65;61.61;94291.13;5048901;28;20497;-76
2022/02/01 07:01:27;;;;;;;67.07;32.58;;;;;;;0.61;62.17;94293.22;5029731;28;20052;-77
2022/02/01 07:03:53;;;;;;;47.33;23.05;;;;;;;0.61;60.68;94294.03;5048643;28;20119;-76
2022/02/01 07:06:18;;;;;;;44.67;22.85;;;;;;;0.79;60.39;94295.13;5045293;28;20066;-78
2022/02/01 07:08:45;;;;;;;42.47;21.27;;;;;;;0.61;59.73;94290.59;5047480;28;20119;-77
2022/02/01 07:11:11;;;;;;;40.92;19.83;;;;;;;0.67;59.15;94290.00;5046219;28;20518;-78
2022/02/01 07:13:37;;;;;;;47.67;21.15;;;;;;;0.74;59.74;94285.00;5046804;28;20487;-78
2022/02/01 07:16:04;;;;;;;53.72;23.80;;;;;;;0.83;60.40;94286.75;5043606;28;20041;-77
2022/02/01 07:18:29;;;;;;;45.97;22.33;;;;;;;0.87;60.66;94284.66;5046008;28;20025;-77
2022/02/01 07:20:55;;;;;;;49.22;22.08;;;;;;;0.83;60.68;94289.41;5047310;28;20029;-78
2022/02/01 07:23:25;;;;;;;46.08;23.80;;;;;;;0.58;60.98;94299.59;5047265;28;20549;-78
2022/02/01 07:25:51;;;;;;;51.95;25.17;;;;;;;0.60;62.01;94317.94;5047528;28;20492;-76
2022/02/01 07:28:17;;;;;;;51.47;24.70;;;;;;;0.56;61.66;94325.34;5047356;28;20064;-78
2022/02/01 07:30:43;;;;;;;50.80;24.05;;;;;;;0.58;60.40;94325.19;5030223;28;20119;-78
2022/02/01 07:33:09;;;;;;;45.55;22.35;;;;;;;0.60;60.57;94321.41;5046018;28;20440;-78
2022/02/01 07:35:37;;;;;;;46.42;22.90;;;;;;;0.65;59.68;94306.94;5044695;28;20036;-78
2022/02/01 07:38:02;;;;;;;39.90;20.52;;;;;;;0.72;60.92;94315.97;5046219;28;20112;-77
2022/02/01 07:40:28;;;;;;;48.28;21.80;;;;;;;0.89;59.70;94316.19;5045577;28;20029;-77
2022/02/01 07:42:53;;;;;;;47.30;20.63;;;;;;;0.85;58.94;94321.75;5045274;28;20040;-76
2022/02/01 07:45:22;;;;;;;49.72;22.20;;;;;;;0.95;58.44;94320.91;5044356;28;20381;-77
2022/02/01 07:47:48;;;;;;;49.45;23.67;;;;;;;1.02;58.61;94319.31;5030465;28;20047;-75
2022/02/01 07:50:13;;;;;;;51.08;24.30;;;;;;;1.07;59.93;94324.16;5047069;28;20020;-77
2022/02/01 07:52:39;;;;;;;44.53;24.23;;;;;;;1.10;59.02;94327.34;5040960;28;20032;-75
2022/02/01 07:55:05;;;;;;;50.58;25.38;;;;;;;1.25;60.00;94326.03;5025075;28;20033;-78
2022/02/01 07:57:30;;;;;;;49.22;25.40;;;;;;;1.06;59.36;94333.09;5044330;28;20032;-75
2022/02/01 07:59:56;;;;;;;52.03;25.00;;;;;;;1.03;59.87;94334.19;5046834;28;20029;-76
2022/02/01 08:02:24;;;;;;;56.20;25.38;;;;;;;1.11;60.54;94336.13;5040215;28;20041;-77
2022/02/01 08:04:50;;;;;;;52.83;25.80;;;;;;;1.17;58.14;94338.19;5046062;28;20412;-77
2022/02/01 08:07:15;;;;;;;48.45;23.63;;;;;;;1.24;57.58;94341.06;5045101;28;20032;-78
2022/02/01 08:09:45;;;;;;;48.90;23.02;;;;;;;1.34;57.98;94333.06;5044895;28;20420;-77
2022/02/01 08:13:04;;;;;;;48.10;23.00;;;;;;;1.42;57.91;94338.47;5043560;28;20057;-78
2022/02/01 08:20:02;;;;;;;42.47;21.80;;;;;;;1.70;57.13;94345.53;5044129;28;20480;-78
2022/02/01 08:22:49;;;;;;;44.95;20.85;;;;;;;1.59;56.31;94339.50;5045223;28;20055;-77
2022/02/01 08:25:14;;;;;;;40.97;19.13;;;;;;;1.67;55.13;94329.97;5046088;28;20033;-78
2022/02/01 08:27:40;;;;;;;37.90;18.50;;;;;;;1.75;53.40;94322.13;5044254;28;20028;-78
2022/02/01 08:30:08;;;;;;;39.03;16.90;;;;;;;1.81;52.32;94329.47;5028783;28;20021;-78
2022/02/01 08:32:33;;;;;;;37.42;15.65;;;;;;;1.89;52.65;94328.69;5043972;28;20083;-78
2022/02/01 08:34:59;;;;;;;35.42;17.95;;;;;;;1.98;53.51;94326.97;5046638;28;20410;-78
2022/02/01 08:37:24;;;;;;;47.20;21.17;;;;;;;2.00;52.45;94326.81;5045367;28;20112;-77
2022/02/01 08:39:50;;;;;;;45.45;19.38;;;;;;;2.14;52.95;94321.00;5044742;28;20052;-77
2022/02/01 08:42:16;;;;;;;41.75;19.20;;;;;;;2.07;53.86;94315.47;5045547;28;20025;-77
2022/02/01 08:44:43;;;;;;;44.75;20.60;;;;;;;2.29;53.41;94317.81;5027341;28;20035;-80
2022/02/01 08:47:09;;;;;;;42.30;20.27;;;;;;;2.34;52.82;94324.28;5028100;28;20029;-77
2022/02/01 08:49:34;;;;;;;39.42;19.30;;;;;;;2.43;53.08;94324.34;5044347;28;20025;-77
2022/02/01 08:52:06;;;;;;;39.78;20.38;;;;;;;2.52;52.42;94322.59;5029468;28;20021;-77
2022/02/01 08:54:33;;;;;;;39.67;19.20;;;;;;;2.42;51.19;94328.81;5045716;28;20032;-76
2022/02/01 08:59:42;;;;;;;37.13;18.50;;;;;;;2.42;51.49;94328.00;5032106;28;20032;-77
2022/02/01 09:02:08;;;;;;;40.50;19.00;;;;;;;2.47;52.62;94331.00;5045142;28;20037;-78
2022/02/01 09:04:33;;;;;;;32.72;16.92;;;;;;;2.58;50.94;94328.09;5046161;28;20025;-79
2022/02/01 09:06:59;;;;;;;34.92;17.23;;;;;;;2.58;49.46;94319.31;5044793;28;20024;-78
2022/02/01 09:09:26;;;;;;;40.88;18.15;;;;;;;2.71;49.92;94317.09;5029330;28;20036;-77
2022/02/01 09:11:52;;;;;;;47.42;17.10;;;;;;;2.66;49.52;94318.56;5044431;28;20051;-76
2022/02/01 09:14:17;;;;;;;34.45;16.73;;;;;;;2.62;48.34;94310.09;5044983;28;20434;-77
2022/02/01 09:16:43;;;;;;;38.97;16.65;;;;;;;2.76;48.94;94302.59;5028280;28;20028;-77
2022/02/01 09:19:10;;;;;;;34.58;16.25;;;;;;;2.79;49.75;94305.72;5044571;28;20095;-78
2022/02/01 09:21:35;;;;;;;38.58;17.52;;;;;;;2.80;48.84;94310.06;5046527;28;20525;-77
2022/02/01 09:24:00;;;;;;;37.17;17.13;;;;;;;2.86;49.56;94303.28;5027788;28;20063;-81
2022/02/01 09:26:26;;;;;;;36.22;17.88;;;;;;;2.87;49.40;94315.53;5045171;28;20473;-81
2022/02/01 09:28:51;;;;;;;35.20;17.08;;;;;;;2.94;48.75;94313.09;5045660;28;20017;-77
2022/02/01 09:31:17;;;;;;;36.33;18.00;;;;;;;2.94;48.25;94311.28;5046498;28;20021;-77
2022/02/01 09:33:43;;;;;;;36.92;17.85;;;;;;;2.94;48.42;94316.56;5027893;28;20124;-78
2022/02/01 09:36:08;;;;;;;35.47;17.55;;;;;;;3.02;49.12;94314.94;5028274;28;20025;-78
2022/02/01 09:38:34;;;;;;;37.25;17.67;;;;;;;2.95;49.23;94317.41;5044371;28;20064;-79
2022/02/01 09:41:00;;;;;;;38.83;18.85;;;;;;;2.97;48.39;94318.91;5044599;28;20032;-78
2022/02/01 09:43:26;;;;;;;39.95;18.92;;;;;;;2.97;48.69;94310.13;5045077;28;20055;-79
2022/02/01 09:45:54;;;;;;;39.92;19.23;;;;;;;2.99;48.83;94302.84;5044024;28;20021;-79
2022/02/01 09:48:20;;;;;;;39.75;18.45;;;;;;;3.05;48.71;94307.53;5045214;28;20037;-78
2022/02/01 09:50:45;;;;;;;38.40;18.95;;;;;;;3.12;48.80;94304.22;5025804;28;20087;-77
2022/02/01 09:53:10;;;;;;;39.00;18.95;;;;;;;3.21;48.84;94308.56;5024627;28;20025;-79
2022/02/01 09:55:36;;;;;;;40.80;19.27;;;;;;;3.15;48.79;94306.56;5024386;28;20049;-79
2022/02/01 09:58:02;;;;;;;34.75;16.52;;;;;;;3.11;47.87;94310.53;5007093;28;20405;-78
2022/02/01 10:00:43;;;;;;;34.00;15.73;;;;;;;3.04;48.09;94311.16;5025703;28;20133;-76
2022/02/01 10:03:16;;;;;;;31.05;16.58;;;;;;;3.04;48.68;94300.56;4992160;28;20091;-77
2022/02/01 10:05:43;;;;;;;31.00;14.70;;;;;;;3.29;47.30;94295.34;5013046;28;20040;-79
2022/02/01 10:08:09;;;;;;;24.25;12.15;;;;;;;3.34;45.00;94301.00;5028320;28;20064;-78
2022/02/01 10:10:34;;;;;;;24.60;12.63;;;;;;;3.41;44.13;94297.72;5030053;28;20455;-77
2022/02/01 10:13:15;;;;;;;28.17;13.38;;;;;;;3.18;44.24;94296.47;5032035;28;20021;-79
2022/02/01 10:15:53;;;;;;;27.60;14.27;;;;;;;3.36;44.67;94287.59;5039747;28;20629;-79
2022/02/01 10:18:28;;;;;;;23.95;11.85;;;;;;;3.32;44.30;94287.09;5037772;28;20063;-79
2022/02/01 10:20:53;;;;;;;26.65;11.80;;;;;;;3.44;43.80;94292.94;5028519;28;20116;-77
2022/02/01 10:23:20;;;;;;;20.30;10.52;;;;;;;3.62;44.72;94291.16;5024558;28;20052;-77
2022/02/01 10:25:59;;;;;;;19.27;10.10;;;;;;;3.66;43.92;94281.91;5047222;28;20039;-78
2022/02/01 10:28:27;;;;;;;20.23;10.02;;;;;;;3.76;42.84;94287.88;5038644;28;20103;-77
2022/02/01 10:30:52;;;;;;;18.58;8.55;;;;;;;3.80;42.72;94286.56;5046136;28;20025;-78
2022/02/01 10:36:12;;;;;;;21.25;9.43;;;;;;;3.91;43.65;94289.88;5025389;28;20472;-76
2022/02/01 10:38:38;;;;;;;20.63;9.57;;;;;;;4.04;45.13;94292.03;5044871;28;20025;-77
2022/02/01 10:41:04;;;;;;;20.20;10.38;;;;;;;4.12;45.20;94299.19;5041381;28;20414;-76
2022/02/01 10:43:34;;;;;;;23.25;10.40;;;;;;;4.20;45.46;94291.22;5041260;28;20033;-78
2022/02/01 10:46:15;;;;;;;29.45;13.38;;;;;;;4.23;45.29;94288.25;5036959;28;20155;-78
2022/02/01 10:48:52;;;;;;;25.88;12.63;;;;;;;4.27;46.50;94296.72;5030467;28;20033;-76
2022/02/01 10:51:19;;;;;;;34.70;14.35;;;;;;;4.33;46.59;94293.38;5021375;28;20032;-76
2022/02/01 10:53:45;;;;;;;33.95;15.00;;;;;;;4.46;47.26;94287.56;5011179;28;20175;-78
2022/02/01 10:56:12;;;;;;;30.67;15.02;;;;;;;4.51;46.98;94293.22;5046376;28;20037;-78
2022/02/01 10:58:38;;;;;;;31.75;14.65;;;;;;;4.58;47.80;94299.50;5028226;28;20483;-78
2022/02/01 11:01:04;;;;;;;29.83;15.48;;;;;;;4.74;47.83;94300.47;5037885;28;20056;-81
2022/02/01 11:03:30;;;;;;;30.50;16.00;;;;;;;4.72;47.91;94299.00;5030465;28;20479;-78
2022/02/01 11:05:55;;;;;;;34.92;16.42;;;;;;;4.80;48.00;94305.09;5050040;28;20032;-82
2022/02/01 11:08:26;;;;;;;30.33;15.77;;;;;;;4.85;47.68;94311.75;5045405;28;20032;-79
2022/02/01 11:10:59;;;;;;;31.65;16.15;;;;;;;4.87;47.96;94312.41;5049675;28;20035;-80
2022/02/01 11:13:38;;;;;;;35.40;16.38;;;;;;;5.07;46.97;94305.72;5046563;28;20466;-79
2022/02/01 11:16:05;;;;;;;25.23;15.23;;;;;;;4.87;46.15;94301.78;5047425;28;20032;-80
2022/02/01 11:18:30;;;;;;;37.75;16.05;;;;;;;4.75;46.46;94291.53;5046032;28;20047;-79
2022/02/01 11:21:02;;;;;;;35.75;15.65;;;;;;;4.80;46.71;94288.34;5029622;28;20431;-79
2022/02/01 11:23:34;;;;;;;34.28;16.52;;;;;;;4.76;47.36;94281.69;5047293;28;20032;-79
2022/02/01 11:26:08;;;;;;;28.88;16.38;;;;;;;4.51;47.45;94279.94;5043716;28;20025;-80
2022/02/01 11:29:00;;;;;;;33.00;16.60;;;;;;;4.54;47.45;94274.28;5045190;28;20502;-76
2022/02/01 11:31:30;;;;;;;30.88;16.38;;;;;;;4.40;48.59;94282.94;5046507;28;20112;-79
2022/02/01 11:33:55;;;;;;;32.10;14.43;;;;;;;4.36;47.25;94281.59;5047383;28;20025;-79
2022/02/01 11:36:20;;;;;;;27.55;13.60;;;;;;;4.47;46.91;94283.06;5047109;28;20044;-81
2022/02/01 11:38:55;;;;;;;35.25;15.82;;;;;;;4.36;47.63;94284.25;5044192;28;20041;-80
2022/02/01 11:41:33;;;;;;;31.13;13.77;;;;;;;4.37;48.16;94286.72;5030439;28;20028;-77
2022/02/01 11:44:21;;;;;;;25.52;12.50;;;;;;;4.38;46.58;94282.25;5045994;28;20027;-78
2022/02/01 11:47:03;;;;;;;28.80;12.30;;;;;;;4.28;45.57;94283.28;5046618;28;20325;-79
2022/02/01 11:49:29;;;;;;;28.40;12.38;;;;;;;4.33;45.07;94282.75;5045290;28;20037;-79
2022/02/01 11:52:12;;;;;;;26.55;10.75;;;;;;;4.26;43.11;94289.72;5045715;28;20024;-79
2022/02/01 11:54:38;;;;;;;;;;;;;;;4.19;42.66;94294.88;5045925;28;20025;-79
2022/02/01 11:57:27;;;;;;;18.50;8.05;;;;;;;4.15;43.25;94293.53;5047848;28;20288;-80
2022/02/01 11:59:53;;;;;;;12.95;6.68;;;;;;;4.07;42.73;94303.16;5028022;28;20474;-81
2022/02/01 12:02:33;;;;;;;18.92;8.40;;;;;;;3.93;43.47;94299.31;5047742;28;20084;-82
2022/02/01 12:05:14;;;;;;;19.27;9.25;;;;;;;3.72;44.70;94307.75;5037241;28;20044;-79
2022/02/01 12:08:10;;;;;;;23.10;11.70;;;;;;;3.68;45.32;94311.72;5029156;28;20124;-78
2022/02/01 12:10:42;;;;;;;23.90;11.40;;;;;;;3.55;46.29;94304.22;5047377;28;20140;-80
2022/02/01 12:13:08;;;;;;;24.15;12.18;;;;;;;3.65;45.71;94304.09;5044967;28;20186;-78
2022/02/01 12:15:39;;;;;;;22.27;10.88;;;;;;;3.37;46.09;94296.41;5029040;28;20029;-81
2022/02/01 12:18:41;;;;;;;21.60;11.27;;;;;;;3.56;46.29;94304.06;5044008;28;20048;-79
2022/02/01 12:21:16;;;;;;;17.95;8.95;;;;;;;3.56;44.71;94309.34;5046588;28;20383;-77
2022/02/01 12:23:46;;;;;;;17.08;8.77;;;;;;;3.52;44.65;94318.63;5047433;28;20493;-79
2022/02/01 12:26:22;;;;;;;13.30;6.75;;;;;;;3.48;44.77;94319.13;5046139;28;20023;-77
2022/02/01 12:28:49;;;;;;;13.90;7.22;;;;;;;3.53;44.81;94317.63;5045088;28;20060;-78
2022/02/01 12:31:15;;;;;;;15.18;7.45;;;;;;;3.43;44.11;94320.41;5029056;28;20036;-78
2022/02/01 12:33:42;;;;;;;17.13;6.90;;;;;;;3.38;44.37;94316.59;5027493;28;20441;-82
2022/02/01 12:36:08;;;;;;;15.52;7.93;;;;;;;3.36;44.41;94335.31;5045388;28;20140;-81
2022/02/01 12:38:33;;;;;;;15.90;6.53;;;;;;;3.31;44.65;94325.19;5041724;28;20694;-80
2022/02/01 12:41:12;;;;;;;14.73;6.72;;;;;;;3.34;45.44;94337.28;5046205;28;20036;-81
2022/02/01 12:48:56;;;;;;;18.27;8.13;;;;;;;3.27;46.61;94360.13;5028213;28;20492;-81
2022/02/01 12:51:21;;;;;;;19.15;7.05;;;;;;;3.14;46.89;94368.50;5027983;28;20032;-78
2022/02/01 12:53:48;;;;;;;16.35;7.97;;;;;;;3.21;47.07;94364.22;5047185;28;20029;-77
2022/02/01 12:56:14;;;;;;;13.43;6.45;;;;;;;3.20;46.94;94365.22;5038489;28;20064;-79
2022/02/01 12:58:39;;;;;;;12.80;6.45;;;;;;;3.16;46.84;94363.88;5042490;28;20914;-78